createdAt,value
2019-02-26T00:01:01.157Z,171.10
2019-02-26T00:03:28.548Z,181.37
2019-02-26T00:05:56.976Z,167.13
2019-02-26T00:08:26.827Z,187.83
2019-02-26T00:10:56.719Z,178.23
2019-02-26T00:13:23.369Z,180.90
2019-02-26T00:15:51.749Z,171.10
2019-02-26T00:18:19.581Z,194.43
2019-02-26T00:20:47.443Z,175.80
2019-02-26T00:23:14.286Z,178.03
2019-02-26T00:25:41.093Z,186.53
2019-02-26T00:28:07.907Z,166.37
2019-02-26T00:30:37.417Z,173.80
2019-02-26T00:33:05.258Z,180.93
2019-02-26T00:35:32.362Z,191.43
2019-02-26T00:37:59.245Z,178.50
2019-02-26T00:40:26.375Z,150.50
2019-02-26T00:42:56.474Z,197.87
2019-02-26T00:45:24.674Z,209.87
2019-02-26T00:47:50.658Z,194.63
2019-02-26T00:50:17.550Z,246.03
2019-02-26T00:52:44.519Z,216.83
2019-02-26T00:55:11.541Z,212.73
2019-02-26T00:57:40.486Z,219.63
2019-02-26T01:00:09.918Z,219.83
2019-02-26T01:02:38.172Z,208.63
2019-02-26T01:05:06.308Z,224.47
2019-02-26T01:07:34.124Z,230.93
2019-02-26T01:10:01.026Z,222.00
2019-02-26T01:12:27.830Z,222.53
2019-02-26T01:14:54.853Z,205.67
2019-02-26T01:17:21.658Z,204.47
2019-02-26T01:19:48.444Z,226.27
2019-02-26T01:22:15.305Z,232.00
2019-02-26T01:24:42.102Z,217.23
2019-02-26T01:27:08.925Z,218.40
2019-02-26T01:29:35.781Z,237.07
2019-02-26T01:32:02.798Z,249.13
2019-02-26T01:34:29.696Z,256.67
2019-02-26T01:36:56.678Z,238.70
2019-02-26T01:39:23.492Z,247.93
2019-02-26T01:41:51.167Z,277.03
2019-02-26T01:44:19.206Z,302.70
2019-02-26T01:46:46.106Z,321.43
2019-02-26T01:49:12.890Z,340.10
2019-02-26T01:51:39.814Z,351.93
2019-02-26T01:54:08.064Z,354.27
2019-02-26T01:56:36.493Z,356.70
2019-02-26T01:59:03.955Z,329.53
2019-02-26T02:01:30.777Z,287.97
2019-02-26T02:03:57.677Z,303.47
2019-02-26T02:06:24.625Z,302.63
2019-02-26T02:08:53.621Z,253.50
2019-02-26T02:11:23.430Z,342.53
2019-02-26T02:13:49.167Z,375.50
2019-02-26T02:16:15.972Z,367.20
2019-02-26T02:18:46.035Z,412.47
2019-02-26T02:21:11.698Z,473.23
2019-02-26T02:23:38.494Z,429.23
2019-02-26T02:26:07.130Z,449.53
2019-02-26T02:28:35.607Z,458.57
2019-02-26T02:31:03.039Z,472.30
2019-02-26T02:33:32.085Z,459.83
2019-02-26T02:35:58.686Z,511.83
2019-02-26T02:38:25.544Z,446.83
2019-02-26T02:40:54.765Z,497.83
2019-02-26T02:43:23.476Z,380.13
2019-02-26T02:45:52.938Z,410.50
2019-02-26T02:48:18.915Z,438.57
2019-02-26T02:50:45.854Z,453.50
2019-02-26T02:53:12.657Z,415.63
2019-02-26T02:55:40.257Z,528.60
2019-02-26T02:58:08.413Z,502.73
2019-02-26T03:00:35.501Z,516.17
2019-02-26T03:03:02.414Z,489.93
2019-02-26T03:05:31.560Z,604.50
2019-02-26T03:07:57.952Z,673.03
2019-02-26T03:10:28.460Z,729.07
2019-02-26T03:12:55.272Z,674.80
2019-02-26T03:15:24.586Z,643.13
2019-02-26T03:17:51.018Z,705.07
2019-02-26T03:20:17.852Z,719.50
2019-02-26T03:22:46.711Z,537.40
2019-02-26T03:25:14.898Z,554.23
2019-02-26T03:27:42.689Z,532.17
2019-02-26T03:30:20.508Z,621.63
2019-02-26T03:32:46.096Z,535.37
2019-02-26T03:35:13.212Z,667.73
2019-02-26T03:37:39.563Z,659.93
2019-02-26T03:40:08.261Z,624.37
2019-02-26T03:42:36.532Z,731.23
2019-02-26T03:45:05.109Z,701.40
2019-02-26T03:47:32.141Z,612.80
2019-02-26T03:49:59.053Z,693.83
2019-02-26T03:52:25.861Z,618.57
2019-02-26T03:54:52.981Z,620.67
2019-02-26T03:57:22.120Z,586.40
2019-02-26T03:59:48.741Z,596.23
2019-02-26T04:02:18.102Z,557.47
2019-02-26T04:04:45.858Z,583.33
2019-02-26T04:07:13.705Z,608.43
2019-02-26T04:09:44.033Z,584.53
2019-02-26T04:12:11.257Z,499.83
2019-02-26T04:14:38.272Z,552.90
2019-02-26T04:17:06.514Z,557.60
2019-02-26T04:19:33.927Z,487.93
2019-02-26T04:22:26.485Z,439.73
2019-02-26T04:24:59.706Z,469.63
2019-02-26T04:28:10.872Z,495.67
2019-02-26T04:31:25.268Z,511.20
2019-02-26T04:34:18.888Z,455.53
2019-02-26T04:37:02.492Z,437.03
2019-02-26T04:39:59.049Z,449.43
2019-02-26T04:43:01.867Z,453.30
2019-02-26T04:45:51.885Z,426.20
2019-02-26T04:48:23.652Z,570.43
2019-02-26T04:50:49.327Z,437.33
2019-02-26T04:53:16.206Z,454.90
2019-02-26T04:55:48.967Z,512.40
2019-02-26T04:58:18.213Z,478.07
2019-02-26T05:01:05.385Z,539.30
2019-02-26T05:03:33.189Z,462.93
2019-02-26T05:06:02.083Z,519.87
2019-02-26T05:08:30.035Z,565.57
2019-02-26T05:10:59.978Z,525.20
2019-02-26T05:13:27.486Z,582.90
2019-02-26T05:15:55.490Z,561.43
2019-02-26T05:18:23.232Z,619.77
2019-02-26T05:20:50.974Z,535.50
2019-02-26T05:23:17.811Z,526.13
2019-02-26T05:25:44.898Z,629.43
2019-02-26T05:28:14.112Z,671.40
2019-02-26T05:30:43.234Z,650.23
2019-02-26T05:33:09.573Z,595.77
2019-02-26T05:35:37.824Z,578.40
2019-02-26T05:38:06.714Z,589.33
2019-02-26T05:40:37.471Z,570.33
2019-02-26T05:43:04.679Z,611.73
2019-02-26T05:45:35.428Z,600.87
2019-02-26T05:48:00.527Z,642.43
2019-02-26T05:50:29.568Z,664.00
2019-02-26T05:52:58.963Z,605.00
2019-02-26T05:55:25.642Z,636.80
2019-02-26T05:57:53.839Z,666.80
2019-02-26T06:00:24.803Z,609.50
2019-02-26T06:02:51.014Z,615.80
2019-02-26T06:05:20.401Z,570.00
2019-02-26T06:07:46.854Z,597.93
2019-02-26T06:10:13.759Z,727.20
2019-02-26T06:12:43.293Z,594.30
2019-02-26T06:15:09.507Z,499.13
2019-02-26T06:17:40.556Z,690.83
2019-02-26T06:20:17.317Z,633.10
2019-02-26T06:22:44.092Z,617.40
2019-02-26T06:25:17.605Z,535.30
2019-02-26T06:27:39.909Z,550.33
2019-02-26T06:30:11.543Z,633.00
2019-02-26T06:32:39.138Z,668.90
2019-02-26T06:35:08.516Z,552.63
2019-02-26T06:37:37.796Z,565.30
2019-02-26T06:40:07.443Z,587.77
2019-02-26T06:42:35.521Z,473.80
2019-02-26T06:45:05.939Z,476.67
2019-02-26T06:47:33.293Z,523.83
2019-02-26T06:50:00.256Z,393.73
2019-02-26T06:52:27.146Z,327.33
2019-02-26T06:54:56.361Z,341.43
2019-02-26T06:57:22.901Z,362.77
2019-02-26T06:59:50.999Z,372.10
2019-02-26T07:02:18.747Z,357.53
2019-02-26T07:04:45.687Z,451.33
2019-02-26T07:07:14.424Z,331.30
2019-02-26T07:09:41.952Z,335.70
2019-02-26T07:12:10.139Z,195.77
2019-02-26T07:14:36.923Z,256.87
2019-02-26T07:17:03.726Z,270.97
2019-02-26T07:19:32.702Z,267.57
2019-02-26T07:21:59.277Z,220.83
2019-02-26T07:24:27.167Z,204.03
2019-02-26T07:26:54.177Z,212.40
2019-02-26T07:29:21.062Z,208.33
2019-02-26T07:31:49.528Z,206.77
2019-02-26T07:34:18.242Z,204.13
2019-02-26T07:36:46.103Z,211.07
2019-02-26T07:39:15.515Z,189.50
2019-02-26T07:41:44.644Z,213.47
2019-02-26T07:44:15.526Z,175.93
2019-02-26T07:46:42.411Z,180.37
2019-02-26T07:49:09.394Z,190.73
2019-02-26T07:51:38.067Z,173.07
2019-02-26T07:54:04.924Z,160.80
2019-02-26T07:56:32.752Z,151.57
2019-02-26T07:59:03.792Z,145.07
2019-02-26T08:01:28.578Z,153.60
2019-02-26T08:03:55.494Z,130.57
2019-02-26T08:06:22.298Z,129.97
2019-02-26T08:08:49.089Z,130.53
2019-02-26T08:11:16.040Z,132.90
2019-02-26T08:13:42.854Z,116.03
2019-02-26T08:16:09.666Z,118.77
2019-02-26T08:18:36.785Z,112.43
2019-02-26T08:21:05.070Z,107.07
2019-02-26T08:23:32.077Z,108.57
2019-02-26T08:26:00.470Z,109.40
2019-02-26T08:28:27.607Z,102.03
2019-02-26T08:30:55.213Z,100.23
2019-02-26T08:33:23.262Z,102.03
2019-02-26T08:35:50.142Z,100.73
2019-02-26T08:38:17.061Z,92.27
2019-02-26T08:40:43.886Z,81.70
2019-02-26T08:43:10.682Z,89.27
2019-02-26T08:45:37.617Z,76.60
2019-02-26T08:48:04.675Z,78.30
2019-02-26T08:50:33.292Z,78.60
2019-02-26T08:53:00.338Z,67.63
2019-02-26T08:55:27.269Z,73.03
2019-02-26T08:57:56.383Z,72.00
2019-02-26T09:00:23.003Z,71.53
2019-02-26T09:02:53.771Z,62.43
2019-02-26T09:05:18.834Z,60.30
2019-02-26T09:07:47.502Z,55.97
2019-02-26T09:10:15.811Z,54.87
2019-02-26T09:12:45.598Z,52.37
2019-02-26T09:15:13.276Z,50.07
2019-02-26T09:17:42.078Z,51.30
2019-02-26T09:20:12.248Z,44.60
2019-02-26T09:22:43.211Z,45.00
2019-02-26T09:25:09.474Z,45.90
2019-02-26T09:27:42.512Z,42.40
2019-02-26T09:30:10.841Z,41.93
2019-02-26T09:32:38.027Z,45.43
2019-02-26T09:35:07.390Z,43.90
2019-02-26T09:37:34.207Z,41.67
2019-02-26T09:40:02.977Z,41.60
2019-02-26T09:42:30.548Z,37.37
2019-02-26T09:45:00.173Z,42.40
2019-02-26T09:47:32.855Z,36.87
2019-02-26T09:49:58.986Z,39.40
2019-02-26T09:52:32.683Z,35.30
2019-02-26T09:54:59.765Z,33.47
2019-02-26T09:57:28.235Z,38.97
2019-02-26T09:59:58.149Z,38.90
2019-02-26T10:02:24.685Z,34.03
2019-02-26T10:04:54.438Z,30.17
2019-02-26T10:07:21.439Z,31.13
2019-02-26T10:09:48.529Z,30.83
2019-02-26T10:12:17.151Z,35.97
2019-02-26T10:14:44.150Z,34.73
2019-02-26T10:17:12.230Z,33.37
2019-02-26T10:19:41.163Z,35.30
2019-02-26T10:22:10.816Z,38.80
2019-02-26T10:24:40.379Z,28.13
2019-02-26T10:27:08.710Z,35.23
2019-02-26T10:29:38.865Z,32.43
2019-02-26T10:32:04.069Z,31.03
2019-02-26T10:34:30.866Z,30.00
2019-02-26T10:36:57.866Z,29.70
2019-02-26T10:39:26.442Z,32.57
2019-02-26T10:41:53.714Z,37.63
2019-02-26T10:44:20.697Z,40.13
2019-02-26T10:46:47.775Z,40.30
2019-02-26T10:49:14.589Z,42.17
2019-02-26T10:51:42.636Z,37.77
2019-02-26T10:54:13.749Z,45.40
2019-02-26T10:56:41.956Z,40.77
2019-02-26T10:59:09.250Z,44.50
2019-02-26T11:01:36.966Z,43.77
2019-02-26T11:04:04.618Z,44.67
2019-02-26T11:06:33.728Z,39.63
2019-02-26T11:09:01.837Z,40.43
2019-02-26T11:11:30.517Z,41.37
2019-02-26T11:13:57.931Z,39.83
2019-02-26T11:16:25.884Z,41.00
2019-02-26T11:18:53.511Z,39.17
2019-02-26T11:21:20.550Z,37.70
2019-02-26T11:23:47.597Z,36.67
2019-02-26T11:26:15.466Z,43.60
2019-02-26T11:28:45.402Z,46.37
2019-02-26T11:31:13.998Z,49.70
2019-02-26T11:33:40.741Z,45.47
2019-02-26T11:36:08.900Z,37.10
2019-02-26T11:38:39.077Z,36.77
2019-02-26T11:41:05.338Z,33.43
2019-02-26T11:43:32.175Z,31.97
2019-02-26T11:46:01.377Z,31.77
2019-02-26T11:48:30.755Z,31.53
2019-02-26T11:51:00.819Z,31.93
2019-02-26T11:53:29.623Z,31.73
2019-02-26T11:55:55.006Z,31.67
2019-02-26T11:58:24.260Z,35.83
2019-02-26T12:00:54.226Z,29.10
2019-02-26T12:03:24.975Z,33.30
2019-02-26T12:05:50.145Z,34.83
2019-02-26T12:08:19.602Z,40.37
2019-02-26T12:10:46.203Z,36.70
2019-02-26T12:13:14.703Z,42.20
2019-02-26T12:15:42.849Z,39.67
2019-02-26T12:18:12.304Z,40.63
2019-02-26T12:20:40.946Z,38.87
2019-02-26T12:23:07.955Z,43.30
2019-02-26T12:25:35.658Z,40.53
2019-02-26T12:28:03.696Z,41.73
2019-02-26T12:30:32.355Z,39.90
2019-02-26T12:33:00.514Z,45.10
2019-02-26T12:35:29.681Z,44.47
2019-02-26T12:37:59.376Z,42.03
2019-02-26T12:40:25.553Z,40.97
2019-02-26T12:42:52.741Z,45.93
2019-02-26T12:45:20.022Z,39.50
2019-02-26T12:47:49.343Z,43.93
2019-02-26T12:50:16.151Z,41.70
2019-02-26T12:52:44.800Z,48.70
2019-02-26T12:55:12.599Z,42.03
2019-02-26T12:57:39.622Z,40.50
2019-02-26T13:00:13.262Z,39.70
2019-02-26T13:02:43.323Z,43.00
2019-02-26T13:05:11.469Z,40.83
2019-02-26T13:07:38.946Z,41.37
2019-02-26T13:10:08.505Z,42.43
2019-02-26T13:12:35.422Z,41.60
2019-02-26T13:15:05.757Z,39.73
2019-02-26T13:17:32.368Z,35.27
2019-02-26T13:20:01.666Z,38.70
2019-02-26T13:22:28.455Z,36.40
2019-02-26T13:24:55.270Z,35.53
2019-02-26T13:27:22.094Z,37.93
2019-02-26T13:29:54.556Z,37.73
2019-02-26T13:32:21.038Z,38.57
2019-02-26T13:34:46.618Z,38.53
2019-02-26T13:37:13.685Z,42.50
2019-02-26T13:39:41.366Z,43.70
2019-02-26T13:42:13.732Z,43.93
2019-02-26T13:44:38.447Z,45.33
2019-02-26T13:47:05.482Z,44.77
2019-02-26T13:49:32.318Z,42.80
2019-02-26T13:51:59.277Z,38.87
2019-02-26T13:54:26.115Z,42.23
2019-02-26T13:56:53.023Z,39.43
2019-02-26T13:59:20.140Z,41.27
2019-02-26T14:01:47.265Z,39.50
2019-02-26T14:04:14.095Z,38.60
2019-02-26T14:06:41.086Z,41.77
2019-02-26T14:09:08.015Z,41.37
2019-02-26T14:11:34.942Z,37.43
2019-02-26T14:14:02.023Z,37.23
2019-02-26T14:16:32.527Z,35.67
2019-02-26T14:18:57.641Z,34.87
2019-02-26T14:21:24.593Z,37.10
2019-02-26T14:23:51.649Z,33.80
2019-02-26T14:26:18.746Z,34.00
2019-02-26T14:28:45.713Z,30.90
2019-02-26T14:31:12.525Z,34.10
2019-02-26T14:33:39.446Z,36.17
2019-02-26T14:36:06.396Z,31.57
2019-02-26T14:38:33.590Z,34.53
2019-02-26T14:41:02.262Z,32.20
2019-02-26T14:43:29.323Z,32.00
2019-02-26T14:45:56.551Z,29.40
2019-02-26T14:48:23.358Z,33.80
2019-02-26T14:50:50.392Z,32.10
2019-02-26T14:53:20.171Z,31.53
2019-02-26T14:55:46.987Z,31.00
2019-02-26T14:58:13.825Z,30.40
2019-02-26T15:00:41.071Z,30.90
2019-02-26T15:03:07.888Z,25.43
2019-02-26T15:05:34.949Z,27.63
2019-02-26T15:08:01.763Z,26.40
2019-02-26T15:10:28.582Z,27.30
2019-02-26T15:12:55.800Z,26.87
2019-02-26T15:15:22.964Z,25.80
2019-02-26T15:17:49.870Z,26.00
2019-02-26T15:20:16.996Z,25.93
2019-02-26T15:22:44.031Z,28.83
2019-02-26T15:25:14.070Z,31.80
2019-02-26T15:27:40.907Z,34.30
2019-02-26T15:30:09.282Z,42.07
2019-02-26T15:32:36.098Z,38.10
2019-02-26T15:35:03.609Z,44.30
2019-02-26T15:37:30.658Z,39.87
2019-02-26T15:39:57.686Z,41.90
2019-02-26T15:42:24.779Z,45.73
2019-02-26T15:44:51.825Z,46.17
2019-02-26T15:47:24.059Z,46.90
2019-02-26T15:49:51.036Z,44.57
2019-02-26T15:52:21.547Z,46.70
2019-02-26T15:54:50.049Z,47.33
2019-02-26T15:57:16.990Z,48.53
2019-02-26T15:59:45.427Z,48.30
2019-02-26T16:02:12.464Z,50.13
2019-02-26T16:04:39.817Z,49.33
2019-02-26T16:07:06.650Z,51.77
2019-02-26T16:09:36.834Z,53.50
2019-02-26T16:12:05.788Z,52.77
2019-02-26T16:14:32.931Z,51.23
2019-02-26T16:17:23.252Z,49.00
2019-02-26T16:19:50.988Z,55.03
2019-02-26T16:22:18.163Z,55.63
2019-02-26T16:24:45.229Z,54.87
2019-02-26T16:27:13.095Z,53.63
2019-02-26T16:29:40.127Z,54.57
2019-02-26T16:32:07.136Z,54.90
2019-02-26T16:34:35.122Z,59.33
2019-02-26T16:37:03.247Z,54.97
2019-02-26T16:39:31.148Z,54.37
2019-02-26T16:42:06.681Z,60.47
2019-02-26T16:44:33.944Z,60.50
2019-02-26T16:47:00.983Z,56.80
2019-02-26T16:49:28.407Z,64.20
2019-02-26T16:51:55.666Z,57.30
2019-02-26T16:54:23.593Z,53.30
2019-02-26T16:56:54.513Z,58.47
2019-02-26T16:59:19.869Z,50.87
2019-02-26T17:01:46.976Z,52.87
2019-02-26T17:04:13.882Z,57.50
2019-02-26T17:06:40.826Z,55.13
2019-02-26T17:09:08.649Z,59.10
2019-02-26T17:11:38.358Z,60.83
2019-02-26T17:14:09.947Z,63.53
2019-02-26T17:16:36.755Z,59.73
2019-02-26T17:19:03.899Z,69.37
2019-02-26T17:21:31.261Z,70.63
2019-02-26T17:23:58.149Z,69.13
2019-02-26T17:26:25.079Z,68.40
2019-02-26T17:28:51.917Z,62.20
2019-02-26T17:31:18.829Z,83.27
2019-02-26T17:33:46.723Z,90.43
2019-02-26T17:36:14.174Z,85.23
2019-02-26T17:38:41.092Z,77.00
2019-02-26T17:41:09.909Z,80.03
2019-02-26T17:43:37.054Z,84.07
2019-02-26T17:46:04.054Z,81.80
2019-02-26T17:48:31.248Z,105.63
2019-02-26T17:50:58.902Z,95.80
2019-02-26T17:53:27.720Z,119.17
2019-02-26T17:55:54.435Z,107.97
2019-02-26T17:58:21.286Z,110.97
2019-02-26T18:00:52.322Z,96.07
2019-02-26T18:03:19.251Z,87.07
2019-02-26T18:05:51.177Z,90.27
2019-02-26T18:08:18.838Z,90.40
2019-02-26T18:10:43.821Z,103.03
2019-02-26T18:13:10.869Z,104.00
2019-02-26T18:15:37.684Z,118.70
2019-02-26T18:18:04.710Z,102.50
2019-02-26T18:20:31.672Z,85.13
2019-02-26T18:23:00.162Z,93.07
2019-02-26T18:25:27.291Z,107.73
2019-02-26T18:27:54.138Z,90.37
2019-02-26T18:30:21.780Z,100.90
2019-02-26T18:32:54.872Z,100.43
2019-02-26T18:35:19.538Z,95.77
2019-02-26T18:37:46.715Z,100.93
2019-02-26T18:40:14.041Z,98.70
2019-02-26T18:42:41.412Z,118.47
2019-02-26T18:45:11.783Z,126.57
2019-02-26T18:47:42.250Z,126.33
2019-02-26T18:50:07.830Z,170.03
2019-02-26T18:52:35.137Z,157.07
2019-02-26T18:55:02.269Z,147.80
2019-02-26T18:57:29.136Z,149.00
2019-02-26T18:59:55.979Z,170.30
2019-02-26T19:02:22.994Z,195.40
2019-02-26T19:04:50.077Z,182.57
2019-02-26T19:07:17.294Z,193.70
2019-02-26T19:09:45.566Z,177.30
2019-02-26T19:12:12.802Z,159.57
2019-02-26T19:14:42.251Z,144.83
2019-02-26T19:17:08.795Z,138.20
2019-02-26T19:19:35.782Z,141.43
2019-02-26T19:22:02.710Z,140.13
2019-02-26T19:24:29.642Z,141.53
2019-02-26T19:26:56.502Z,152.77
2019-02-26T19:29:23.329Z,134.87
2019-02-26T19:31:50.247Z,142.30
2019-02-26T19:34:17.282Z,115.70
2019-02-26T19:36:45.898Z,116.97
2019-02-26T19:39:13.217Z,133.27
2019-02-26T19:41:40.351Z,144.27
2019-02-26T19:44:07.438Z,142.83
2019-02-26T19:46:35.569Z,150.50
2019-02-26T19:49:05.576Z,134.27
2019-02-26T19:51:31.755Z,141.77
2019-02-26T19:53:58.837Z,142.67
2019-02-26T19:56:25.830Z,185.97
2019-02-26T19:58:52.972Z,202.80
2019-02-26T20:01:25.481Z,239.63
2019-02-26T20:03:51.134Z,235.30
2019-02-26T20:06:18.768Z,279.07
2019-02-26T20:08:47.277Z,291.63
2019-02-26T20:11:14.722Z,264.63
2019-02-26T20:13:42.202Z,251.60
2019-02-26T20:16:09.806Z,248.10
2019-02-26T20:18:36.906Z,262.33
2019-02-26T20:21:03.887Z,284.27
2019-02-26T20:23:30.750Z,312.00
2019-02-26T20:25:57.631Z,287.77
2019-02-26T20:28:24.537Z,313.20
2019-02-26T20:30:51.560Z,293.47
2019-02-26T20:33:18.550Z,310.97
2019-02-26T20:35:45.930Z,300.97
2019-02-26T20:38:12.979Z,292.03
2019-02-26T20:40:40.016Z,300.00
2019-02-26T20:43:06.858Z,277.40
2019-02-26T20:45:33.969Z,276.83
2019-02-26T20:48:03.821Z,272.33
2019-02-26T20:50:29.576Z,281.20
2019-02-26T20:52:56.390Z,292.83
2019-02-26T20:55:23.378Z,305.23
2019-02-26T20:57:50.270Z,284.47
2019-02-26T21:00:17.856Z,277.07
2019-02-26T21:02:44.922Z,266.83
2019-02-26T21:05:12.440Z,263.63
2019-02-26T21:07:39.633Z,237.10
2019-02-26T21:10:07.370Z,244.03
2019-02-26T21:12:34.836Z,246.20
2019-02-26T21:15:01.814Z,249.30
2019-02-26T21:17:28.762Z,271.27
2019-02-26T21:19:55.694Z,256.90
2019-02-26T21:22:22.782Z,285.93
2019-02-26T21:24:49.861Z,301.63
2019-02-26T21:27:16.647Z,302.57
2019-02-26T21:29:43.561Z,306.43
2019-02-26T21:32:10.772Z,322.73
2019-02-26T21:34:37.850Z,306.20
2019-02-26T21:37:05.305Z,340.07
2019-02-26T21:39:34.042Z,350.07
2019-02-26T21:42:00.952Z,366.70
2019-02-26T21:44:27.766Z,382.30
2019-02-26T21:46:56.184Z,391.90
2019-02-26T21:49:28.493Z,424.63
2019-02-26T21:51:56.433Z,403.60
2019-02-26T21:54:27.764Z,437.60
2019-02-26T21:56:55.201Z,471.83
2019-02-26T21:59:22.684Z,404.37
2019-02-26T22:01:49.702Z,416.77
2019-02-26T22:04:16.493Z,387.00
2019-02-26T22:06:44.850Z,442.90
2019-02-26T22:09:12.398Z,435.40
2019-02-26T22:11:39.363Z,453.17
2019-02-26T22:14:06.385Z,442.63
2019-02-26T22:16:33.484Z,427.93
2019-02-26T22:19:00.294Z,437.67
2019-02-26T22:21:27.214Z,434.10
2019-02-26T22:23:54.053Z,450.20
2019-02-26T22:26:20.916Z,458.67
2019-02-26T22:28:48.012Z,440.47
2019-02-26T22:31:15.305Z,434.20
2019-02-26T22:33:43.190Z,410.97
2019-02-26T22:36:11.485Z,403.57
2019-02-26T22:38:38.596Z,392.80
2019-02-26T22:41:05.838Z,398.10
2019-02-26T22:43:32.914Z,407.33
2019-02-26T22:46:01.144Z,384.53
2019-02-26T22:48:28.817Z,378.93
2019-02-26T22:50:59.517Z,374.43
2019-02-26T22:53:24.761Z,364.73
2019-02-26T22:55:51.897Z,347.80
2019-02-26T22:58:18.736Z,363.87
2019-02-26T23:00:58.721Z,371.93
2019-02-26T23:03:25.831Z,363.03
2019-02-26T23:05:52.879Z,368.97
2019-02-26T23:08:19.947Z,368.83
2019-02-26T23:10:46.994Z,355.90
2019-02-26T23:13:15.248Z,359.10
2019-02-26T23:15:45.156Z,355.20
2019-02-26T23:18:11.961Z,369.70
2019-02-26T23:20:42.499Z,379.83
2019-02-26T23:23:07.991Z,365.20
2019-02-26T23:25:36.043Z,378.20
2019-02-26T23:28:04.037Z,382.30
2019-02-26T23:30:31.201Z,392.40
2019-02-26T23:32:58.803Z,390.47
2019-02-26T23:35:26.114Z,389.90
2019-02-26T23:37:53.622Z,397.00
2019-02-26T23:40:20.517Z,419.70
2019-02-26T23:42:47.933Z,405.57
2019-02-26T23:45:15.201Z,402.47
2019-02-26T23:47:42.354Z,401.57
2019-02-26T23:50:09.372Z,408.93
2019-02-26T23:52:36.434Z,434.73
2019-02-26T23:55:03.439Z,427.97
2019-02-26T23:57:30.354Z,450.57
2019-02-26T23:59:57.327Z,453.13
